Nearby METAR Reports

 

KHIF - Hill Afb/Ogden, Utah, USA
Distance from station: ENE 6mi, 9km
Updated: Wed, 18-Jul-2018 11:58am MDT
Clear
Clear
 Wind from N
Wind: N 3 mph , 6 km/h
Temperature: 86°F , 30°C
Dew Point: 32°F , 0°C
Humidity: 14%
Barometer: 30.20 inHg , 1022.7 hPa
Clouds: Clear
Visibility: 10 miles , 16 km
2018/07/18 17:58 KHIF 181758Z 01003KT 10SM CLR 30/00 A3020 RMK AO2A SLP157 T03041001 10312 20196 50001
KOGD - Ogden, Utah, USA
Distance from station: NNE 9mi, 14km
Updated: Wed, 18-Jul-2018 11:53am MDT
Clear
Clear
 Wind from calm
Wind: Calm
Temperature: 88°F , 31°C
Dew Point: 36°F , 2°C
Humidity: 16%
Barometer: 30.17 inHg , 1021.7 hPa
Clouds: Clear
Visibility: 10 miles , 16 km
2018/07/18 17:53 KOGD 181753Z 00000KT 10SM CLR 31/02 A3017 RMK AO2 SLP147 T03110022 10322 20200 58001
 
KSLC - Salt Lake City, Utah, USA
Distance from station: SSE 21mi, 34km
Updated: Wed, 18-Jul-2018 11:54am MDT
Few Clouds
Few Clouds
 Wind from NE
Wind: NE 5 mph , 7 km/h
Temperature: 90°F , 32°C
Dew Point: 39°F , 4°C
Humidity: 17%
Barometer: 30.15 inHg , 1021 hPa
Clouds: Few Clouds
Visibility: 10 miles , 16 km
Cloud details: Few Clouds 15000 ft
Few Clouds 25000 ft
2018/07/18 17:54 KSLC 181754Z 04004KT 10SM FEW150 FEW250 32/04 A3015 RMK AO2 SLP144 T03220039 10328 20206 58002
KLGU - Logan, Utah, USA
Distance from station: NNE 50mi, 80km
Updated: Wed, 18-Jul-2018 11:51am MDT
Clear
Clear
 Wind from calm
Wind: Calm
Temperature: 81°F , 27°C
Dew Point: 43°F , 6°C
Humidity: 26%
Barometer: 30.19 inHg , 1022.4 hPa
Clouds: Clear
Visibility: 10 miles , 16 km
2018/07/18 17:51 KLGU 181751Z AUTO 00000KT 10SM CLR 27/06 A3019 RMK AO2 SLP167 T02670061 10267 20089 58006
 
K36U - Heber/Russ Mcdon, Utah, USA
Distance from station: SE 53mi, 85km
Updated: Wed, 11-Oct-2017 6:50pm MDT
NOT Current
Clear
Clear
 Wind from SSW
Wind: SSW 10 mph , 17 km/h, Gust: 18 mph , 30 km/h
Temperature: 63°F , 17°C
Dew Point: 16°F , -9°C
Humidity: 16%
Barometer: 29.87 inHg , 1011.5 hPa
Clouds: Clear
Visibility: 10 miles , 16 km
2017/10/12 00:50 K36U 120050Z AUTO 21009G16KT 10SM CLR 17/M09 A2987 RMK AO2
KEVW - Evanston, Wyoming, USA
Distance from station: ENE 55mi, 89km
Updated: Wed, 18-Jul-2018 11:53am MDT
Clear
Clear
 Wind from WNW
Wind: WNW 10 mph , 17 km/h, Gust: 21 mph , 33 km/h
Temperature: 82°F , 28°C
Dew Point: 30°F , -1°C
Humidity: 15%
Barometer: 30.37 inHg , 1028.4 hPa
Clouds: Clear
Visibility: 10 miles , 16 km
2018/07/18 17:53 KEVW 181753Z AUTO 30009G18KT 10SM CLR 28/M01 A3037 RMK AO2 SLP169 T02781006 10283 20133 58003
 
KPVU - Provo Muni, Utah, USA
Distance from station: SSE 62mi, 100km
Updated: Wed, 18-Jul-2018 11:56am MDT
Clear
Clear
 Wind from varies
Wind: varies 6 mph , 9 km/h
Temperature: 88°F , 31°C
Dew Point: 50°F , 10°C
Humidity: 27%
Barometer: 30.19 inHg , 1022.4 hPa
Clouds: Clear
Visibility: 10 miles , 16 km
2018/07/18 17:56 KPVU 181756Z VRB05KT 10SM CLR 31/10 A3019 RMK AO2 SLP160 T03060100 10306 20172 58004 $
KDPG - Dugway Prvg Grou, Utah, USA
Distance from station: SW 75mi, 121km
Updated: Wed, 18-Jul-2018 11:55am MDT
Few Clouds
Few Clouds
 Wind from varies
Wind: varies 1 mph , 2 km/h
Temperature: 93°F , 34°C
Dew Point: 34°F , 1°C
Humidity: 12%
Barometer: 30.17 inHg , 1021.7 hPa
Clouds: Few Clouds
Visibility: 30 miles , 48 km
Cloud details: Few Clouds 13000 ft
Few Clouds 25000 ft
2018/07/18 17:55 KDPG 181755Z VRB01KT 30SM FEW130 FEW250 34/01 A3017 RMK SLP151 T03390010 10343 20172 58006
 
KENV - Wendover (aut), Utah, USA
Distance from station: WSW 105mi, 169km
Updated: Wed, 18-Jul-2018 11:56am MDT
Clear
Clear
 Wind from E
Wind: E 8 mph , 13 km/h
Temperature: 91°F , 33°C
Dew Point: 34°F , 1°C
Humidity: 13%
Barometer: 30.16 inHg , 1021.3 hPa
Clouds: Clear
Visibility: 10 miles , 16 km
2018/07/18 17:56 KENV 181756Z AUTO 09007KT 10SM CLR 33/01 A3016 RMK AO2 SLP158 T03280006 10328 20206 58002
KPUC - Price, Utah, USA
Distance from station: SE 123mi, 197km
Updated: Wed, 18-Jul-2018 11:53am MDT
Clear
Clear
 
Temperature: 84°F , 29°C
Dew Point: 52°F , 11°C
Humidity: 33%
Barometer: 30.26 inHg , 1024.7 hPa
Clouds: Clear
Visibility: 10 miles , 16 km
2018/07/18 17:53 KPUC 181753Z AUTO 10SM CLR 29/11 A3026 RMK AO2 SLP150 6//// T02890111 10289 20172 57006 PWINO $
 
KPIH - Pocatello, Idaho, USA
Distance from station: NNW 130mi, 208km
Updated: Wed, 18-Jul-2018 11:53am MDT
Clear
Clear
 Wind from varies
Wind: varies 5 mph , 7 km/h
Temperature: 88°F , 31°C
Dew Point: 46°F , 8°C
Humidity: 24%
Barometer: 30.17 inHg , 1021.7 hPa
Clouds: Clear
Visibility: 10 miles , 16 km
2018/07/18 17:53 KPIH 181753Z VRB04KT 10SM CLR 31/08 A3017 RMK AO2 SLP165 T03060083 10306 20106 58007 $
KBYI - Burley, Idaho, USA
Distance from station: NW 134mi, 216km
Updated: Wed, 18-Jul-2018 11:53am MDT
Clear
Clear
 Wind from varies
Wind: varies 5 mph , 7 km/h
Temperature: 90°F , 32°C
Dew Point: 43°F , 6°C
Humidity: 20%
Barometer: 30.12 inHg , 1020 hPa
Clouds: Clear
Visibility: 10 miles , 16 km
2018/07/18 17:53 KBYI 181753Z AUTO VRB04KT 10SM CLR 32/06 A3012 RMK AO2 SLP150 T03170061 10322 20117 58006
 
KVEL - Vernal, Utah, USA
Distance from station: ESE 140mi, 226km
Updated: Wed, 18-Jul-2018 11:53am MDT
Clear
Clear
 Wind from varies
Wind: varies 6 mph , 9 km/h
Temperature: 88°F , 31°C
Dew Point: 43°F , 6°C
Humidity: 21%
Barometer: 30.22 inHg , 1023.4 hPa
Clouds: Clear
Visibility: 10 miles , 16 km
2018/07/18 17:53 KVEL 181753Z AUTO VRB05KT 10SM CLR 31/06 A3022 RMK AO2 SLP157 T03060061 10311 20150 58005
KBPI - Big Piney, Wyoming, USA
Distance from station: NE 145mi, 234km
Updated: Wed, 18-Jul-2018 11:53am MDT
Clear
Clear
 Wind from NNW
Wind: NNW 14 mph , 22 km/h, Gust: 23 mph , 37 km/h
Temperature: 81°F , 27°C
Dew Point: 34°F , 1°C
Humidity: 18%
Barometer: 30.34 inHg , 1027.4 hPa
Clouds: Clear
Visibility: 10 miles , 16 km
2018/07/18 17:53 KBPI 181753Z AUTO 34012G20KT 10SM CLR 27/01 A3034 RMK AO2 SLP173 T02720006 10272 20044 58005